sensor_id;sensor_type;location;lat;lon;timestamp;P1;durP1;ratioP1;P2;durP2;ratioP2
48403;SDS011;34202;52.536;6.042;2023-05-10T00:02:05;13.20;;;10.20;;
48403;SDS011;34202;52.536;6.042;2023-05-10T00:07:05;12.70;;;11.30;;
48403;SDS011;34202;52.536;6.042;2023-05-10T00:12:06;14.70;;;10.80;;
48403;SDS011;34202;52.536;6.042;2023-05-10T00:17:07;12.30;;;11.00;;
48403;SDS011;34202;52.536;6.042;2023-05-10T00:22:07;13.50;;;11.90;;
48403;SDS011;34202;52.536;6.042;2023-05-10T00:27:07;12.80;;;11.50;;
48403;SDS011;34202;52.536;6.042;2023-05-10T00:32:08;16.50;;;13.40;;
48403;SDS011;34202;52.536;6.042;2023-05-10T00:37:08;14.10;;;12.60;;
48403;SDS011;34202;52.536;6.042;2023-05-10T00:42:09;14.10;;;11.60;;
48403;SDS011;34202;52.536;6.042;2023-05-10T00:47:10;13.80;;;12.40;;
48403;SDS011;34202;52.536;6.042;2023-05-10T00:52:11;14.50;;;12.90;;
48403;SDS011;34202;52.536;6.042;2023-05-10T00:57:12;15.80;;;12.80;;
48403;SDS011;34202;52.536;6.042;2023-05-10T01:02:12;16.20;;;14.20;;
48403;SDS011;34202;52.536;6.042;2023-05-10T01:07:13;18.70;;;15.80;;
48403;SDS011;34202;52.536;6.042;2023-05-10T01:12:14;20.10;;;14.20;;
48403;SDS011;34202;52.536;6.042;2023-05-10T01:17:15;16.90;;;14.00;;
48403;SDS011;34202;52.536;6.042;2023-05-10T01:38:42;18.00;;;13.60;;
48403;SDS011;34202;52.536;6.042;2023-05-10T01:43:57;16.50;;;13.50;;
48403;SDS011;34202;52.536;6.042;2023-05-10T01:49:22;17.50;;;15.20;;
48403;SDS011;34202;52.536;6.042;2023-05-10T01:54:26;16.60;;;14.80;;
48403;SDS011;34202;52.536;6.042;2023-05-10T01:59:29;18.00;;;14.50;;
48403;SDS011;34202;52.536;6.042;2023-05-10T02:04:36;18.00;;;15.40;;
48403;SDS011;34202;52.536;6.042;2023-05-10T02:09:38;21.90;;;14.70;;
48403;SDS011;34202;52.536;6.042;2023-05-10T02:14:41;18.60;;;15.50;;
48403;SDS011;34202;52.536;6.042;2023-05-10T02:19:42;19.90;;;14.60;;
48403;SDS011;34202;52.536;6.042;2023-05-10T02:24:45;20.40;;;15.10;;
48403;SDS011;34202;52.536;6.042;2023-05-10T02:29:47;20.10;;;14.40;;
48403;SDS011;34202;52.536;6.042;2023-05-10T02:34:49;18.30;;;13.80;;
48403;SDS011;34202;52.536;6.042;2023-05-10T02:39:53;18.20;;;14.30;;
48403;SDS011;34202;52.536;6.042;2023-05-10T02:44:56;17.80;;;14.80;;
48403;SDS011;34202;52.536;6.042;2023-05-10T02:50:00;19.80;;;15.70;;
48403;SDS011;34202;52.536;6.042;2023-05-10T02:55:05;20.40;;;15.10;;
48403;SDS011;34202;52.536;6.042;2023-05-10T03:00:09;23.40;;;16.40;;
48403;SDS011;34202;52.536;6.042;2023-05-10T03:05:10;25.70;;;16.80;;
48403;SDS011;34202;52.536;6.042;2023-05-10T03:10:10;26.40;;;18.70;;
48403;SDS011;34202;52.536;6.042;2023-05-10T03:25:33;24.40;;;16.40;;
48403;SDS011;34202;52.536;6.042;2023-05-10T03:30:34;24.70;;;16.20;;
48403;SDS011;34202;52.536;6.042;2023-05-10T03:35:36;21.60;;;15.90;;
48403;SDS011;34202;52.536;6.042;2023-05-10T03:40:36;24.00;;;14.90;;
48403;SDS011;34202;52.536;6.042;2023-05-10T03:45:37;18.90;;;13.40;;
48403;SDS011;34202;52.536;6.042;2023-05-10T03:50:37;18.30;;;12.90;;
48403;SDS011;34202;52.536;6.042;2023-05-10T03:55:38;16.70;;;11.60;;
48403;SDS011;34202;52.536;6.042;2023-05-10T04:00:38;15.80;;;11.60;;
48403;SDS011;34202;52.536;6.042;2023-05-10T04:10:43;11.40;;;9.30;;
48403;SDS011;34202;52.536;6.042;2023-05-10T04:15:44;14.90;;;10.10;;
48403;SDS011;34202;52.536;6.042;2023-05-10T04:20:44;11.60;;;10.00;;
48403;SDS011;34202;52.536;6.042;2023-05-10T04:25:45;15.10;;;10.60;;
48403;SDS011;34202;52.536;6.042;2023-05-10T04:30:45;16.30;;;10.70;;
48403;SDS011;34202;52.536;6.042;2023-05-10T04:35:46;16.00;;;10.90;;
48403;SDS011;34202;52.536;6.042;2023-05-10T04:40:46;16.80;;;11.60;;
48403;SDS011;34202;52.536;6.042;2023-05-10T04:45:46;15.10;;;12.10;;
48403;SDS011;34202;52.536;6.042;2023-05-10T04:50:47;14.50;;;11.20;;
48403;SDS011;34202;52.536;6.042;2023-05-10T04:55:47;16.80;;;12.30;;
48403;SDS011;34202;52.536;6.042;2023-05-10T05:00:48;18.80;;;13.20;;
48403;SDS011;34202;52.536;6.042;2023-05-10T05:05:49;16.80;;;13.00;;
48403;SDS011;34202;52.536;6.042;2023-05-10T05:10:49;23.30;;;14.60;;
48403;SDS011;34202;52.536;6.042;2023-05-10T05:15:52;21.30;;;14.00;;
48403;SDS011;34202;52.536;6.042;2023-05-10T05:20:53;17.40;;;13.80;;
48403;SDS011;34202;52.536;6.042;2023-05-10T05:25:53;19.00;;;14.20;;
48403;SDS011;34202;52.536;6.042;2023-05-10T05:30:54;18.50;;;13.50;;
48403;SDS011;34202;52.536;6.042;2023-05-10T05:35:54;22.50;;;14.20;;
48403;SDS011;34202;52.536;6.042;2023-05-10T05:40:55;16.50;;;12.90;;
48403;SDS011;34202;52.536;6.042;2023-05-10T05:45:55;17.70;;;13.10;;
48403;SDS011;34202;52.536;6.042;2023-05-10T05:50:57;17.70;;;13.30;;
48403;SDS011;34202;52.536;6.042;2023-05-10T05:55:58;19.60;;;13.20;;
48403;SDS011;34202;52.536;6.042;2023-05-10T06:00:59;19.90;;;13.40;;
48403;SDS011;34202;52.536;6.042;2023-05-10T06:05:59;18.20;;;13.30;;
48403;SDS011;34202;52.536;6.042;2023-05-10T06:11:00;21.50;;;12.80;;
48403;SDS011;34202;52.536;6.042;2023-05-10T06:16:01;18.00;;;12.40;;
48403;SDS011;34202;52.536;6.042;2023-05-10T06:21:02;17.10;;;11.10;;
48403;SDS011;34202;52.536;6.042;2023-05-10T06:26:03;20.00;;;14.60;;
48403;SDS011;34202;52.536;6.042;2023-05-10T06:31:04;21.00;;;12.60;;
48403;SDS011;34202;52.536;6.042;2023-05-10T06:36:05;20.50;;;13.30;;
48403;SDS011;34202;52.536;6.042;2023-05-10T06:41:05;24.70;;;12.80;;
48403;SDS011;34202;52.536;6.042;2023-05-10T06:46:06;20.20;;;13.00;;
48403;SDS011;34202;52.536;6.042;2023-05-10T06:51:07;19.40;;;11.20;;
48403;SDS011;34202;52.536;6.042;2023-05-10T06:56:07;17.50;;;11.70;;
48403;SDS011;34202;52.536;6.042;2023-05-10T07:01:07;18.10;;;11.40;;
48403;SDS011;34202;52.536;6.042;2023-05-10T07:06:08;21.00;;;11.20;;
48403;SDS011;34202;52.536;6.042;2023-05-10T07:11:08;15.90;;;11.80;;
48403;SDS011;34202;52.536;6.042;2023-05-10T07:16:08;14.50;;;10.90;;
48403;SDS011;34202;52.536;6.042;2023-05-10T07:21:09;16.70;;;10.80;;
48403;SDS011;34202;52.536;6.042;2023-05-10T07:26:10;12.90;;;9.70;;
48403;SDS011;34202;52.536;6.042;2023-05-10T07:31:11;15.60;;;8.40;;
48403;SDS011;34202;52.536;6.042;2023-05-10T07:36:12;10.70;;;7.30;;
48403;SDS011;34202;52.536;6.042;2023-05-10T07:41:12;11.40;;;7.00;;
48403;SDS011;34202;52.536;6.042;2023-05-10T07:46:13;8.70;;;6.60;;
48403;SDS011;34202;52.536;6.042;2023-05-10T07:51:13;5.50;;;4.90;;
48403;SDS011;34202;52.536;6.042;2023-05-10T07:56:20;8.30;;;5.70;;
48403;SDS011;34202;52.536;6.042;2023-05-10T08:01:23;6.10;;;5.10;;
48403;SDS011;34202;52.536;6.042;2023-05-10T08:06:24;5.40;;;4.90;;
48403;SDS011;34202;52.536;6.042;2023-05-10T08:11:26;10.00;;;4.80;;
48403;SDS011;34202;52.536;6.042;2023-05-10T08:16:28;6.80;;;4.40;;
48403;SDS011;34202;52.536;6.042;2023-05-10T08:21:28;7.50;;;5.30;;
48403;SDS011;34202;52.536;6.042;2023-05-10T08:26:29;5.30;;;4.60;;
48403;SDS011;34202;52.536;6.042;2023-05-10T08:31:30;15.70;;;5.20;;
48403;SDS011;34202;52.536;6.042;2023-05-10T08:36:31;5.70;;;4.20;;
48403;SDS011;34202;52.536;6.042;2023-05-10T08:41:32;5.40;;;4.80;;
48403;SDS011;34202;52.536;6.042;2023-05-10T08:46:33;6.60;;;4.70;;
48403;SDS011;34202;52.536;6.042;2023-05-10T08:51:40;5.90;;;5.30;;
48403;SDS011;34202;52.536;6.042;2023-05-10T08:56:47;7.30;;;5.60;;
48403;SDS011;34202;52.536;6.042;2023-05-10T09:01:47;5.40;;;4.60;;
48403;SDS011;34202;52.536;6.042;2023-05-10T09:06:49;7.00;;;5.20;;
48403;SDS011;34202;52.536;6.042;2023-05-10T09:11:49;7.20;;;5.60;;
48403;SDS011;34202;52.536;6.042;2023-05-10T09:16:50;6.80;;;5.50;;
48403;SDS011;34202;52.536;6.042;2023-05-10T09:21:51;8.00;;;6.80;;
48403;SDS011;34202;52.536;6.042;2023-05-10T09:26:51;10.10;;;6.70;;
48403;SDS011;34202;52.536;6.042;2023-05-10T09:31:52;13.50;;;7.60;;
48403;SDS011;34202;52.536;6.042;2023-05-10T09:36:58;8.50;;;7.40;;
48403;SDS011;34202;52.536;6.042;2023-05-10T09:42:07;11.20;;;7.80;;
48403;SDS011;34202;52.536;6.042;2023-05-10T09:47:09;9.30;;;8.30;;
48403;SDS011;34202;52.536;6.042;2023-05-10T09:52:09;7.60;;;6.50;;
48403;SDS011;34202;52.536;6.042;2023-05-10T09:57:18;9.00;;;6.80;;
48403;SDS011;34202;52.536;6.042;2023-05-10T10:02:21;10.80;;;7.60;;
48403;SDS011;34202;52.536;6.042;2023-05-10T10:07:28;9.40;;;8.10;;
48403;SDS011;34202;52.536;6.042;2023-05-10T10:12:29;9.00;;;7.40;;
48403;SDS011;34202;52.536;6.042;2023-05-10T10:17:29;8.60;;;7.70;;
48403;SDS011;34202;52.536;6.042;2023-05-10T10:22:31;8.60;;;7.10;;
48403;SDS011;34202;52.536;6.042;2023-05-10T10:38:16;10.10;;;7.30;;
48403;SDS011;34202;52.536;6.042;2023-05-10T10:43:23;8.30;;;7.30;;
48403;SDS011;34202;52.536;6.042;2023-05-10T10:48:25;8.90;;;7.40;;
48403;SDS011;34202;52.536;6.042;2023-05-10T10:53:26;10.60;;;8.10;;
48403;SDS011;34202;52.536;6.042;2023-05-10T10:58:30;11.70;;;8.40;;
48403;SDS011;34202;52.536;6.042;2023-05-10T11:03:32;10.00;;;7.80;;
48403;SDS011;34202;52.536;6.042;2023-05-10T11:08:32;9.80;;;6.90;;
48403;SDS011;34202;52.536;6.042;2023-05-10T11:18:38;12.20;;;9.20;;
48403;SDS011;34202;52.536;6.042;2023-05-10T11:28:49;14.10;;;9.50;;
48403;SDS011;34202;52.536;6.042;2023-05-10T11:33:51;12.10;;;8.90;;
48403;SDS011;34202;52.536;6.042;2023-05-10T11:38:56;12.70;;;9.30;;
48403;SDS011;34202;52.536;6.042;2023-05-10T11:43:57;13.10;;;9.50;;
48403;SDS011;34202;52.536;6.042;2023-05-10T11:49:00;11.40;;;9.20;;
48403;SDS011;34202;52.536;6.042;2023-05-10T11:54:07;11.60;;;8.80;;
48403;SDS011;34202;52.536;6.042;2023-05-10T11:59:09;10.80;;;9.20;;
48403;SDS011;34202;52.536;6.042;2023-05-10T12:04:09;16.60;;;9.90;;
48403;SDS011;34202;52.536;6.042;2023-05-10T12:09:10;12.20;;;9.10;;
48403;SDS011;34202;52.536;6.042;2023-05-10T12:14:10;11.70;;;8.10;;
48403;SDS011;34202;52.536;6.042;2023-05-10T12:19:11;11.10;;;8.10;;
48403;SDS011;34202;52.536;6.042;2023-05-10T12:24:11;11.30;;;8.60;;
48403;SDS011;34202;52.536;6.042;2023-05-10T12:29:13;12.30;;;9.00;;
48403;SDS011;34202;52.536;6.042;2023-05-10T12:34:22;13.20;;;9.40;;
48403;SDS011;34202;52.536;6.042;2023-05-10T12:39:41;11.70;;;8.40;;
48403;SDS011;34202;52.536;6.042;2023-05-10T12:44:43;11.80;;;8.00;;
48403;SDS011;34202;52.536;6.042;2023-05-10T12:49:43;8.60;;;6.60;;
48403;SDS011;34202;52.536;6.042;2023-05-10T12:54:44;9.00;;;6.60;;
48403;SDS011;34202;52.536;6.042;2023-05-10T12:59:44;7.90;;;6.80;;
48403;SDS011;34202;52.536;6.042;2023-05-10T13:04:45;7.80;;;6.50;;
48403;SDS011;34202;52.536;6.042;2023-05-10T13:09:46;10.40;;;7.60;;
48403;SDS011;34202;52.536;6.042;2023-05-10T13:14:46;10.50;;;6.80;;
48403;SDS011;34202;52.536;6.042;2023-05-10T13:19:47;11.90;;;7.30;;
48403;SDS011;34202;52.536;6.042;2023-05-10T13:24:47;7.80;;;6.60;;
48403;SDS011;34202;52.536;6.042;2023-05-10T13:29:47;8.90;;;6.20;;
48403;SDS011;34202;52.536;6.042;2023-05-10T13:34:48;9.20;;;6.90;;
48403;SDS011;34202;52.536;6.042;2023-05-10T13:39:48;11.80;;;8.70;;
48403;SDS011;34202;52.536;6.042;2023-05-10T13:44:49;11.80;;;9.10;;
48403;SDS011;34202;52.536;6.042;2023-05-10T13:49:50;11.80;;;9.70;;
48403;SDS011;34202;52.536;6.042;2023-05-10T13:54:50;11.40;;;8.90;;
48403;SDS011;34202;52.536;6.042;2023-05-10T13:59:54;13.40;;;8.80;;
48403;SDS011;34202;52.536;6.042;2023-05-10T14:04:55;10.80;;;7.70;;
48403;SDS011;34202;52.536;6.042;2023-05-10T14:09:55;10.10;;;7.70;;
48403;SDS011;34202;52.536;6.042;2023-05-10T14:14:55;11.20;;;8.10;;
48403;SDS011;34202;52.536;6.042;2023-05-10T14:19:56;13.50;;;9.20;;
48403;SDS011;34202;52.536;6.042;2023-05-10T14:24:56;14.60;;;8.20;;
48403;SDS011;34202;52.536;6.042;2023-05-10T14:29:57;14.70;;;9.30;;
48403;SDS011;34202;52.536;6.042;2023-05-10T14:34:57;11.50;;;8.60;;
48403;SDS011;34202;52.536;6.042;2023-05-10T14:39:58;9.80;;;7.50;;
48403;SDS011;34202;52.536;6.042;2023-05-10T14:44:58;11.10;;;8.40;;
48403;SDS011;34202;52.536;6.042;2023-05-10T14:49:58;9.00;;;7.00;;
48403;SDS011;34202;52.536;6.042;2023-05-10T14:54:59;7.80;;;6.50;;
48403;SDS011;34202;52.536;6.042;2023-05-10T15:00:01;10.60;;;6.90;;
48403;SDS011;34202;52.536;6.042;2023-05-10T15:05:02;10.80;;;7.20;;
48403;SDS011;34202;52.536;6.042;2023-05-10T15:10:03;12.70;;;7.00;;
48403;SDS011;34202;52.536;6.042;2023-05-10T15:15:05;9.00;;;5.60;;
48403;SDS011;34202;52.536;6.042;2023-05-10T15:20:06;6.20;;;5.30;;
48403;SDS011;34202;52.536;6.042;2023-05-10T15:25:07;10.40;;;6.90;;
48403;SDS011;34202;52.536;6.042;2023-05-10T15:30:08;9.20;;;7.50;;
48403;SDS011;34202;52.536;6.042;2023-05-10T15:35:09;10.10;;;6.90;;
48403;SDS011;34202;52.536;6.042;2023-05-10T15:40:10;11.50;;;7.60;;
48403;SDS011;34202;52.536;6.042;2023-05-10T15:45:11;9.40;;;8.20;;
48403;SDS011;34202;52.536;6.042;2023-05-10T15:50:12;15.80;;;8.90;;
48403;SDS011;34202;52.536;6.042;2023-05-10T15:55:12;17.00;;;8.60;;
48403;SDS011;34202;52.536;6.042;2023-05-10T16:00:13;11.80;;;8.50;;
48403;SDS011;34202;52.536;6.042;2023-05-10T16:05:14;10.60;;;9.00;;
48403;SDS011;34202;52.536;6.042;2023-05-10T16:10:14;11.70;;;7.60;;
48403;SDS011;34202;52.536;6.042;2023-05-10T16:15:15;9.70;;;5.50;;
48403;SDS011;34202;52.536;6.042;2023-05-10T16:20:16;8.20;;;5.50;;
48403;SDS011;34202;52.536;6.042;2023-05-10T16:25:16;9.50;;;6.00;;
48403;SDS011;34202;52.536;6.042;2023-05-10T16:30:17;9.70;;;6.10;;
48403;SDS011;34202;52.536;6.042;2023-05-10T16:35:17;10.00;;;6.10;;
48403;SDS011;34202;52.536;6.042;2023-05-10T16:40:18;8.30;;;5.30;;
48403;SDS011;34202;52.536;6.042;2023-05-10T16:45:18;10.80;;;5.50;;
48403;SDS011;34202;52.536;6.042;2023-05-10T16:50:19;8.10;;;4.90;;
48403;SDS011;34202;52.536;6.042;2023-05-10T16:55:20;7.80;;;4.90;;
48403;SDS011;34202;52.536;6.042;2023-05-10T17:00:20;5.20;;;4.40;;
48403;SDS011;34202;52.536;6.042;2023-05-10T17:05:21;8.20;;;4.20;;
48403;SDS011;34202;52.536;6.042;2023-05-10T17:10:21;5.20;;;3.60;;
48403;SDS011;34202;52.536;6.042;2023-05-10T17:15:22;6.10;;;4.30;;
48403;SDS011;34202;52.536;6.042;2023-05-10T17:20:22;7.30;;;4.00;;
48403;SDS011;34202;52.536;6.042;2023-05-10T17:25:23;7.50;;;5.30;;
48403;SDS011;34202;52.536;6.042;2023-05-10T17:30:23;7.70;;;5.80;;
48403;SDS011;34202;52.536;6.042;2023-05-10T17:35:27;9.30;;;7.80;;
48403;SDS011;34202;52.536;6.042;2023-05-10T17:40:30;10.50;;;7.90;;
48403;SDS011;34202;52.536;6.042;2023-05-10T17:45:31;9.70;;;7.10;;
48403;SDS011;34202;52.536;6.042;2023-05-10T17:50:31;7.30;;;6.60;;
48403;SDS011;34202;52.536;6.042;2023-05-10T17:55:32;7.30;;;6.60;;
48403;SDS011;34202;52.536;6.042;2023-05-10T18:00:32;9.90;;;7.30;;
48403;SDS011;34202;52.536;6.042;2023-05-10T18:05:36;9.40;;;7.00;;
48403;SDS011;34202;52.536;6.042;2023-05-10T18:15:38;8.60;;;7.00;;
48403;SDS011;34202;52.536;6.042;2023-05-10T18:20:38;8.50;;;7.20;;
48403;SDS011;34202;52.536;6.042;2023-05-10T18:25:40;7.30;;;5.30;;
48403;SDS011;34202;52.536;6.042;2023-05-10T18:30:40;11.90;;;5.20;;
48403;SDS011;34202;52.536;6.042;2023-05-10T18:35:40;8.30;;;5.20;;
48403;SDS011;34202;52.536;6.042;2023-05-10T18:40:41;5.40;;;4.90;;
48403;SDS011;34202;52.536;6.042;2023-05-10T18:45:41;6.60;;;5.90;;
48403;SDS011;34202;52.536;6.042;2023-05-10T18:50:42;8.10;;;6.00;;
48403;SDS011;34202;52.536;6.042;2023-05-10T18:55:43;7.10;;;6.40;;
48403;SDS011;34202;52.536;6.042;2023-05-10T19:00:43;7.40;;;6.40;;
48403;SDS011;34202;52.536;6.042;2023-05-10T19:05:44;7.00;;;6.00;;
48403;SDS011;34202;52.536;6.042;2023-05-10T19:10:47;8.30;;;7.10;;
48403;SDS011;34202;52.536;6.042;2023-05-10T19:15:58;7.60;;;6.90;;
48403;SDS011;34202;52.536;6.042;2023-05-10T19:21:01;7.60;;;6.30;;
48403;SDS011;34202;52.536;6.042;2023-05-10T19:26:03;7.40;;;6.60;;
48403;SDS011;34202;52.536;6.042;2023-05-10T19:31:04;7.30;;;6.50;;
48403;SDS011;34202;52.536;6.042;2023-05-10T19:36:04;9.50;;;7.40;;
48403;SDS011;34202;52.536;6.042;2023-05-10T19:41:05;11.80;;;8.40;;
48403;SDS011;34202;52.536;6.042;2023-05-10T19:46:05;11.00;;;8.40;;
48403;SDS011;34202;52.536;6.042;2023-05-10T19:51:05;10.60;;;8.80;;
48403;SDS011;34202;52.536;6.042;2023-05-10T19:56:06;14.20;;;9.00;;
48403;SDS011;34202;52.536;6.042;2023-05-10T20:01:06;13.30;;;9.60;;
48403;SDS011;34202;52.536;6.042;2023-05-10T20:06:07;16.10;;;10.30;;
48403;SDS011;34202;52.536;6.042;2023-05-10T20:11:07;12.00;;;9.00;;
48403;SDS011;34202;52.536;6.042;2023-05-10T20:16:08;12.10;;;9.10;;
48403;SDS011;34202;52.536;6.042;2023-05-10T20:21:08;12.60;;;9.50;;
48403;SDS011;34202;52.536;6.042;2023-05-10T20:26:09;10.70;;;8.90;;
48403;SDS011;34202;52.536;6.042;2023-05-10T20:31:09;16.20;;;9.70;;
48403;SDS011;34202;52.536;6.042;2023-05-10T20:36:10;13.40;;;9.60;;
48403;SDS011;34202;52.536;6.042;2023-05-10T20:41:11;12.00;;;9.20;;
48403;SDS011;34202;52.536;6.042;2023-05-10T20:46:11;10.90;;;9.30;;
48403;SDS011;34202;52.536;6.042;2023-05-10T20:51:11;12.80;;;9.80;;
48403;SDS011;34202;52.536;6.042;2023-05-10T20:56:12;14.00;;;10.50;;
48403;SDS011;34202;52.536;6.042;2023-05-10T21:01:12;11.50;;;10.20;;
48403;SDS011;34202;52.536;6.042;2023-05-10T21:06:13;12.80;;;10.30;;
48403;SDS011;34202;52.536;6.042;2023-05-10T21:11:13;11.50;;;9.80;;
48403;SDS011;34202;52.536;6.042;2023-05-10T21:16:13;12.50;;;10.30;;
48403;SDS011;34202;52.536;6.042;2023-05-10T21:21:14;16.30;;;11.30;;
48403;SDS011;34202;52.536;6.042;2023-05-10T21:26:14;17.90;;;13.20;;
48403;SDS011;34202;52.536;6.042;2023-05-10T21:31:16;13.80;;;11.80;;
48403;SDS011;34202;52.536;6.042;2023-05-10T21:36:16;15.30;;;11.60;;
48403;SDS011;34202;52.536;6.042;2023-05-10T21:41:16;13.50;;;11.20;;
48403;SDS011;34202;52.536;6.042;2023-05-10T21:46:17;14.20;;;11.70;;
48403;SDS011;34202;52.536;6.042;2023-05-10T21:51:17;13.50;;;10.90;;
48403;SDS011;34202;52.536;6.042;2023-05-10T21:56:17;12.90;;;10.80;;
48403;SDS011;34202;52.536;6.042;2023-05-10T22:01:18;15.90;;;11.60;;
48403;SDS011;34202;52.536;6.042;2023-05-10T22:06:18;13.10;;;11.20;;
48403;SDS011;34202;52.536;6.042;2023-05-10T22:11:19;14.90;;;10.80;;
48403;SDS011;34202;52.536;6.042;2023-05-10T22:16:20;13.30;;;11.00;;
48403;SDS011;34202;52.536;6.042;2023-05-10T22:21:21;12.40;;;10.40;;
48403;SDS011;34202;52.536;6.042;2023-05-10T22:26:21;14.10;;;12.60;;
48403;SDS011;34202;52.536;6.042;2023-05-10T22:31:22;12.90;;;10.90;;
48403;SDS011;34202;52.536;6.042;2023-05-10T22:36:22;13.30;;;11.20;;
48403;SDS011;34202;52.536;6.042;2023-05-10T22:41:22;17.60;;;12.20;;
48403;SDS011;34202;52.536;6.042;2023-05-10T22:46:23;14.60;;;11.10;;
48403;SDS011;34202;52.536;6.042;2023-05-10T22:51:23;14.30;;;12.30;;
48403;SDS011;34202;52.536;6.042;2023-05-10T22:56:23;14.20;;;10.70;;
48403;SDS011;34202;52.536;6.042;2023-05-10T23:01:24;12.20;;;10.50;;
48403;SDS011;34202;52.536;6.042;2023-05-10T23:06:25;12.00;;;10.70;;
48403;SDS011;34202;52.536;6.042;2023-05-10T23:11:27;18.30;;;12.60;;
48403;SDS011;34202;52.536;6.042;2023-05-10T23:16:27;20.70;;;12.30;;
48403;SDS011;34202;52.536;6.042;2023-05-10T23:21:27;13.60;;;11.30;;
48403;SDS011;34202;52.536;6.042;2023-05-10T23:26:28;13.80;;;11.80;;
48403;SDS011;34202;52.536;6.042;2023-05-10T23:31:28;14.50;;;12.00;;
48403;SDS011;34202;52.536;6.042;2023-05-10T23:36:29;18.00;;;12.60;;
48403;SDS011;34202;52.536;6.042;2023-05-10T23:41:30;15.30;;;12.70;;
48403;SDS011;34202;52.536;6.042;2023-05-10T23:46:31;17.10;;;12.10;;
48403;SDS011;34202;52.536;6.042;2023-05-10T23:51:31;15.60;;;12.00;;
48403;SDS011;34202;52.536;6.042;2023-05-10T23:56:31;15.90;;;11.50;;
